sensor_id;sensor_type;location;lat;lon;timestamp;P1;durP1;ratioP1;P2;durP2;ratioP2
64714;SDS011;51144;53.002;6.506;2022-10-16T00:01:17;12.15;;;1.60;;
64714;SDS011;51144;53.002;6.506;2022-10-16T00:03:45;4.07;;;0.50;;
64714;SDS011;51144;53.002;6.506;2022-10-16T00:06:13;10.05;;;0.68;;
64714;SDS011;51144;53.002;6.506;2022-10-16T00:08:39;8.18;;;0.75;;
64714;SDS011;51144;53.002;6.506;2022-10-16T00:11:10;7.88;;;0.88;;
64714;SDS011;51144;53.002;6.506;2022-10-16T00:13:39;4.68;;;0.77;;
64714;SDS011;51144;53.002;6.506;2022-10-16T00:16:05;4.40;;;0.40;;
64714;SDS011;51144;53.002;6.506;2022-10-16T00:18:31;5.32;;;0.60;;
64714;SDS011;51144;53.002;6.506;2022-10-16T00:21:04;4.72;;;0.50;;
64714;SDS011;51144;53.002;6.506;2022-10-16T00:23:31;9.43;;;0.85;;
64714;SDS011;51144;53.002;6.506;2022-10-16T00:25:58;3.83;;;0.45;;
64714;SDS011;51144;53.002;6.506;2022-10-16T00:28:26;7.05;;;0.68;;
64714;SDS011;51144;53.002;6.506;2022-10-16T00:30:51;5.25;;;0.40;;
64714;SDS011;51144;53.002;6.506;2022-10-16T00:33:17;4.45;;;0.50;;
64714;SDS011;51144;53.002;6.506;2022-10-16T00:35:43;3.80;;;0.55;;
64714;SDS011;51144;53.002;6.506;2022-10-16T00:38:09;5.30;;;0.60;;
64714;SDS011;51144;53.002;6.506;2022-10-16T00:40:35;6.65;;;0.30;;
64714;SDS011;51144;53.002;6.506;2022-10-16T00:43:00;8.75;;;0.88;;
64714;SDS011;51144;53.002;6.506;2022-10-16T00:45:26;10.55;;;1.00;;
64714;SDS011;51144;53.002;6.506;2022-10-16T00:47:52;8.75;;;0.30;;
64714;SDS011;51144;53.002;6.506;2022-10-16T00:52:53;6.57;;;0.70;;
64714;SDS011;51144;53.002;6.506;2022-10-16T00:55:20;2.90;;;0.30;;
64714;SDS011;51144;53.002;6.506;2022-10-16T00:57:46;3.92;;;0.63;;
64714;SDS011;51144;53.002;6.506;2022-10-16T01:00:14;5.65;;;0.40;;
64714;SDS011;51144;53.002;6.506;2022-10-16T01:02:43;7.72;;;0.70;;
64714;SDS011;51144;53.002;6.506;2022-10-16T01:05:08;5.72;;;0.77;;
64714;SDS011;51144;53.002;6.506;2022-10-16T01:10:35;6.03;;;0.50;;
64714;SDS011;51144;53.002;6.506;2022-10-16T01:13:06;4.85;;;0.60;;
64714;SDS011;51144;53.002;6.506;2022-10-16T01:20:45;3.40;;;0.40;;
64714;SDS011;51144;53.002;6.506;2022-10-16T01:23:27;7.25;;;0.43;;
64714;SDS011;51144;53.002;6.506;2022-10-16T01:31:15;4.10;;;0.30;;
64714;SDS011;51144;53.002;6.506;2022-10-16T01:33:44;2.03;;;0.30;;
64714;SDS011;51144;53.002;6.506;2022-10-16T01:36:15;3.85;;;0.30;;
64714;SDS011;51144;53.002;6.506;2022-10-16T01:38:46;4.68;;;0.30;;
64714;SDS011;51144;53.002;6.506;2022-10-16T01:41:15;3.42;;;0.50;;
64714;SDS011;51144;53.002;6.506;2022-10-16T01:43:47;3.90;;;0.20;;
64714;SDS011;51144;53.002;6.506;2022-10-16T01:46:16;7.53;;;0.30;;
64714;SDS011;51144;53.002;6.506;2022-10-16T01:48:45;5.70;;;0.30;;
64714;SDS011;51144;53.002;6.506;2022-10-16T01:51:12;5.13;;;0.38;;
64714;SDS011;51144;53.002;6.506;2022-10-16T01:53:39;4.60;;;0.52;;
64714;SDS011;51144;53.002;6.506;2022-10-16T01:56:08;11.38;;;0.50;;
64714;SDS011;51144;53.002;6.506;2022-10-16T01:58:47;1.90;;;0.25;;
64714;SDS011;51144;53.002;6.506;2022-10-16T02:01:17;3.63;;;0.38;;
64714;SDS011;51144;53.002;6.506;2022-10-16T02:03:45;5.40;;;0.40;;
64714;SDS011;51144;53.002;6.506;2022-10-16T02:06:13;4.25;;;0.40;;
64714;SDS011;51144;53.002;6.506;2022-10-16T02:08:39;4.18;;;0.68;;
64714;SDS011;51144;53.002;6.506;2022-10-16T02:11:09;8.15;;;0.30;;
64714;SDS011;51144;53.002;6.506;2022-10-16T02:13:51;3.47;;;0.20;;
64714;SDS011;51144;53.002;6.506;2022-10-16T02:16:20;5.82;;;0.30;;
64714;SDS011;51144;53.002;6.506;2022-10-16T02:18:48;3.47;;;0.30;;
64714;SDS011;51144;53.002;6.506;2022-10-16T02:21:16;7.60;;;0.35;;
64714;SDS011;51144;53.002;6.506;2022-10-16T02:26:42;4.30;;;0.20;;
64714;SDS011;51144;53.002;6.506;2022-10-16T02:29:14;3.20;;;0.52;;
64714;SDS011;51144;53.002;6.506;2022-10-16T02:31:44;5.20;;;0.22;;
64714;SDS011;51144;53.002;6.506;2022-10-16T02:34:14;4.25;;;0.40;;
64714;SDS011;51144;53.002;6.506;2022-10-16T02:36:41;3.10;;;0.30;;
64714;SDS011;51144;53.002;6.506;2022-10-16T02:39:09;5.97;;;0.28;;
64714;SDS011;51144;53.002;6.506;2022-10-16T02:41:35;2.30;;;0.32;;
64714;SDS011;51144;53.002;6.506;2022-10-16T02:44:01;3.58;;;0.82;;
64714;SDS011;51144;53.002;6.506;2022-10-16T02:46:27;5.28;;;0.38;;
64714;SDS011;51144;53.002;6.506;2022-10-16T02:48:52;4.55;;;0.52;;
64714;SDS011;51144;53.002;6.506;2022-10-16T02:51:18;2.88;;;0.45;;
64714;SDS011;51144;53.002;6.506;2022-10-16T02:53:44;7.43;;;0.75;;
64714;SDS011;51144;53.002;6.506;2022-10-16T02:56:09;2.38;;;0.40;;
64714;SDS011;51144;53.002;6.506;2022-10-16T02:58:35;2.92;;;0.30;;
64714;SDS011;51144;53.002;6.506;2022-10-16T03:01:00;5.55;;;0.30;;
64714;SDS011;51144;53.002;6.506;2022-10-16T03:03:26;2.75;;;0.38;;
64714;SDS011;51144;53.002;6.506;2022-10-16T03:05:52;2.90;;;0.30;;
64714;SDS011;51144;53.002;6.506;2022-10-16T03:08:18;5.15;;;0.50;;
64714;SDS011;51144;53.002;6.506;2022-10-16T03:10:48;3.05;;;0.20;;
64714;SDS011;51144;53.002;6.506;2022-10-16T03:13:14;1.52;;;0.30;;
64714;SDS011;51144;53.002;6.506;2022-10-16T03:15:40;2.88;;;0.40;;
64714;SDS011;51144;53.002;6.506;2022-10-16T03:18:05;3.10;;;0.40;;
64714;SDS011;51144;53.002;6.506;2022-10-16T03:20:31;2.22;;;0.30;;
64714;SDS011;51144;53.002;6.506;2022-10-16T03:22:57;1.27;;;0.30;;
64714;SDS011;51144;53.002;6.506;2022-10-16T03:25:22;3.90;;;0.38;;
64714;SDS011;51144;53.002;6.506;2022-10-16T03:27:48;3.72;;;0.40;;
64714;SDS011;51144;53.002;6.506;2022-10-16T03:30:13;3.13;;;0.40;;
64714;SDS011;51144;53.002;6.506;2022-10-16T03:32:39;5.05;;;0.57;;
64714;SDS011;51144;53.002;6.506;2022-10-16T03:35:05;3.95;;;0.30;;
64714;SDS011;51144;53.002;6.506;2022-10-16T03:37:30;4.60;;;0.50;;
64714;SDS011;51144;53.002;6.506;2022-10-16T03:39:56;5.30;;;0.30;;
64714;SDS011;51144;53.002;6.506;2022-10-16T03:42:22;3.03;;;0.30;;
64714;SDS011;51144;53.002;6.506;2022-10-16T03:44:47;3.65;;;0.77;;
64714;SDS011;51144;53.002;6.506;2022-10-16T03:47:13;1.85;;;0.45;;
64714;SDS011;51144;53.002;6.506;2022-10-16T03:49:38;3.85;;;0.50;;
64714;SDS011;51144;53.002;6.506;2022-10-16T03:52:04;3.33;;;0.40;;
64714;SDS011;51144;53.002;6.506;2022-10-16T03:54:30;2.20;;;0.60;;
64714;SDS011;51144;53.002;6.506;2022-10-16T03:56:55;4.53;;;0.68;;
64714;SDS011;51144;53.002;6.506;2022-10-16T03:59:21;2.15;;;0.40;;
64714;SDS011;51144;53.002;6.506;2022-10-16T04:01:46;2.85;;;0.30;;
64714;SDS011;51144;53.002;6.506;2022-10-16T04:04:12;2.25;;;0.40;;
64714;SDS011;51144;53.002;6.506;2022-10-16T04:06:38;1.50;;;0.20;;
64714;SDS011;51144;53.002;6.506;2022-10-16T04:09:03;1.65;;;0.35;;
64714;SDS011;51144;53.002;6.506;2022-10-16T04:11:29;4.65;;;0.30;;
64714;SDS011;51144;53.002;6.506;2022-10-16T04:13:54;3.95;;;0.30;;
64714;SDS011;51144;53.002;6.506;2022-10-16T04:16:20;3.78;;;0.50;;
64714;SDS011;51144;53.002;6.506;2022-10-16T04:18:45;3.85;;;0.40;;
64714;SDS011;51144;53.002;6.506;2022-10-16T04:21:11;1.95;;;0.45;;
64714;SDS011;51144;53.002;6.506;2022-10-16T04:23:37;4.85;;;0.35;;
64714;SDS011;51144;53.002;6.506;2022-10-16T04:26:02;1.92;;;0.32;;
64714;SDS011;51144;53.002;6.506;2022-10-16T04:28:28;3.75;;;0.60;;
64714;SDS011;51144;53.002;6.506;2022-10-16T04:30:54;3.47;;;0.40;;
64714;SDS011;51144;53.002;6.506;2022-10-16T04:33:20;4.07;;;0.57;;
64714;SDS011;51144;53.002;6.506;2022-10-16T04:35:46;3.45;;;0.60;;
64714;SDS011;51144;53.002;6.506;2022-10-16T04:38:11;3.00;;;0.40;;
64714;SDS011;51144;53.002;6.506;2022-10-16T04:40:37;3.50;;;0.40;;
64714;SDS011;51144;53.002;6.506;2022-10-16T04:43:03;2.58;;;0.40;;
64714;SDS011;51144;53.002;6.506;2022-10-16T04:45:29;5.13;;;0.63;;
64714;SDS011;51144;53.002;6.506;2022-10-16T04:47:58;3.42;;;0.55;;
64714;SDS011;51144;53.002;6.506;2022-10-16T04:50:24;2.78;;;0.85;;
64714;SDS011;51144;53.002;6.506;2022-10-16T04:52:50;5.60;;;0.60;;
64714;SDS011;51144;53.002;6.506;2022-10-16T04:55:16;2.05;;;0.57;;
64714;SDS011;51144;53.002;6.506;2022-10-16T04:57:42;3.00;;;0.50;;
64714;SDS011;51144;53.002;6.506;2022-10-16T05:00:08;5.97;;;1.13;;
64714;SDS011;51144;53.002;6.506;2022-10-16T05:02:34;3.13;;;0.60;;
64714;SDS011;51144;53.002;6.506;2022-10-16T05:04:59;10.75;;;1.88;;
64714;SDS011;51144;53.002;6.506;2022-10-16T05:07:25;2.33;;;0.50;;
64714;SDS011;51144;53.002;6.506;2022-10-16T05:09:50;3.20;;;0.85;;
64714;SDS011;51144;53.002;6.506;2022-10-16T05:12:16;4.30;;;1.02;;
64714;SDS011;51144;53.002;6.506;2022-10-16T05:14:42;2.03;;;0.70;;
64714;SDS011;51144;53.002;6.506;2022-10-16T05:17:07;5.07;;;0.60;;
64714;SDS011;51144;53.002;6.506;2022-10-16T05:19:33;4.50;;;0.90;;
64714;SDS011;51144;53.002;6.506;2022-10-16T05:21:59;4.55;;;0.85;;
64714;SDS011;51144;53.002;6.506;2022-10-16T05:24:24;3.80;;;0.60;;
64714;SDS011;51144;53.002;6.506;2022-10-16T05:26:50;3.50;;;0.43;;
64714;SDS011;51144;53.002;6.506;2022-10-16T05:29:16;3.25;;;0.98;;
64714;SDS011;51144;53.002;6.506;2022-10-16T05:31:42;5.63;;;1.30;;
64714;SDS011;51144;53.002;6.506;2022-10-16T05:34:07;3.85;;;1.08;;
64714;SDS011;51144;53.002;6.506;2022-10-16T05:36:33;6.00;;;0.85;;
64714;SDS011;51144;53.002;6.506;2022-10-16T05:38:58;5.05;;;0.70;;
64714;SDS011;51144;53.002;6.506;2022-10-16T05:41:24;2.42;;;0.80;;
64714;SDS011;51144;53.002;6.506;2022-10-16T05:43:51;4.65;;;0.82;;
64714;SDS011;51144;53.002;6.506;2022-10-16T05:46:17;2.47;;;1.20;;
64714;SDS011;51144;53.002;6.506;2022-10-16T05:48:43;4.05;;;1.00;;
64714;SDS011;51144;53.002;6.506;2022-10-16T05:51:09;4.95;;;1.10;;
64714;SDS011;51144;53.002;6.506;2022-10-16T05:53:37;4.57;;;0.80;;
64714;SDS011;51144;53.002;6.506;2022-10-16T05:56:04;4.70;;;0.80;;
64714;SDS011;51144;53.002;6.506;2022-10-16T05:58:31;4.72;;;1.10;;
64714;SDS011;51144;53.002;6.506;2022-10-16T06:01:09;4.13;;;1.02;;
64714;SDS011;51144;53.002;6.506;2022-10-16T06:03:39;3.42;;;0.60;;
64714;SDS011;51144;53.002;6.506;2022-10-16T06:06:12;3.72;;;0.70;;
64714;SDS011;51144;53.002;6.506;2022-10-16T06:08:40;4.88;;;0.63;;
64714;SDS011;51144;53.002;6.506;2022-10-16T06:11:07;5.35;;;0.80;;
64714;SDS011;51144;53.002;6.506;2022-10-16T06:13:34;4.60;;;0.90;;
64714;SDS011;51144;53.002;6.506;2022-10-16T06:16:00;2.55;;;0.60;;
64714;SDS011;51144;53.002;6.506;2022-10-16T06:18:27;2.92;;;0.80;;
64714;SDS011;51144;53.002;6.506;2022-10-16T06:20:54;2.72;;;0.73;;
64714;SDS011;51144;53.002;6.506;2022-10-16T06:23:20;7.10;;;1.20;;
64714;SDS011;51144;53.002;6.506;2022-10-16T06:25:46;4.28;;;0.60;;
64714;SDS011;51144;53.002;6.506;2022-10-16T06:28:12;6.95;;;0.93;;
64714;SDS011;51144;53.002;6.506;2022-10-16T06:30:39;3.55;;;0.63;;
64714;SDS011;51144;53.002;6.506;2022-10-16T06:33:04;6.65;;;0.70;;
64714;SDS011;51144;53.002;6.506;2022-10-16T06:35:30;3.15;;;1.35;;
64714;SDS011;51144;53.002;6.506;2022-10-16T06:37:57;5.45;;;1.05;;
64714;SDS011;51144;53.002;6.506;2022-10-16T06:40:22;2.85;;;0.80;;
64714;SDS011;51144;53.002;6.506;2022-10-16T06:42:48;2.67;;;0.65;;
64714;SDS011;51144;53.002;6.506;2022-10-16T06:45:14;4.35;;;0.90;;
64714;SDS011;51144;53.002;6.506;2022-10-16T06:47:39;3.03;;;0.80;;
64714;SDS011;51144;53.002;6.506;2022-10-16T06:50:05;1.90;;;0.57;;
64714;SDS011;51144;53.002;6.506;2022-10-16T06:52:33;3.78;;;0.82;;
64714;SDS011;51144;53.002;6.506;2022-10-16T06:54:59;5.60;;;1.13;;
64714;SDS011;51144;53.002;6.506;2022-10-16T06:57:25;5.45;;;0.50;;
64714;SDS011;51144;53.002;6.506;2022-10-16T06:59:51;4.10;;;0.80;;
64714;SDS011;51144;53.002;6.506;2022-10-16T07:02:16;5.88;;;0.80;;
64714;SDS011;51144;53.002;6.506;2022-10-16T07:04:42;4.03;;;0.75;;
64714;SDS011;51144;53.002;6.506;2022-10-16T07:07:07;4.75;;;0.70;;
64714;SDS011;51144;53.002;6.506;2022-10-16T07:09:33;1.88;;;0.50;;
64714;SDS011;51144;53.002;6.506;2022-10-16T07:11:58;2.20;;;0.73;;
64714;SDS011;51144;53.002;6.506;2022-10-16T07:14:24;6.65;;;1.73;;
64714;SDS011;51144;53.002;6.506;2022-10-16T07:16:50;2.38;;;0.60;;
64714;SDS011;51144;53.002;6.506;2022-10-16T07:19:15;2.47;;;0.60;;
64714;SDS011;51144;53.002;6.506;2022-10-16T07:21:43;4.15;;;0.70;;
64714;SDS011;51144;53.002;6.506;2022-10-16T07:24:15;7.28;;;1.20;;
64714;SDS011;51144;53.002;6.506;2022-10-16T07:26:41;2.42;;;0.40;;
64714;SDS011;51144;53.002;6.506;2022-10-16T07:29:18;2.17;;;0.60;;
64714;SDS011;51144;53.002;6.506;2022-10-16T07:31:45;3.90;;;0.70;;
64714;SDS011;51144;53.002;6.506;2022-10-16T07:34:12;8.35;;;1.33;;
64714;SDS011;51144;53.002;6.506;2022-10-16T07:36:39;1.63;;;0.63;;
64714;SDS011;51144;53.002;6.506;2022-10-16T07:39:05;3.67;;;0.65;;
64714;SDS011;51144;53.002;6.506;2022-10-16T07:41:31;2.33;;;0.70;;
64714;SDS011;51144;53.002;6.506;2022-10-16T07:43:58;5.72;;;1.05;;
64714;SDS011;51144;53.002;6.506;2022-10-16T07:46:25;7.95;;;1.17;;
64714;SDS011;51144;53.002;6.506;2022-10-16T07:48:51;4.63;;;0.50;;
64714;SDS011;51144;53.002;6.506;2022-10-16T07:51:18;6.10;;;0.55;;
64714;SDS011;51144;53.002;6.506;2022-10-16T07:53:46;2.70;;;0.57;;
64714;SDS011;51144;53.002;6.506;2022-10-16T07:56:12;5.97;;;0.88;;
64714;SDS011;51144;53.002;6.506;2022-10-16T07:58:38;4.30;;;0.50;;
64714;SDS011;51144;53.002;6.506;2022-10-16T08:01:05;1.55;;;0.30;;
64714;SDS011;51144;53.002;6.506;2022-10-16T08:03:34;4.35;;;0.45;;
64714;SDS011;51144;53.002;6.506;2022-10-16T08:05:59;2.90;;;0.73;;
64714;SDS011;51144;53.002;6.506;2022-10-16T08:08:27;3.08;;;0.35;;
64714;SDS011;51144;53.002;6.506;2022-10-16T08:10:52;2.33;;;0.40;;
64714;SDS011;51144;53.002;6.506;2022-10-16T08:13:18;4.65;;;0.40;;
64714;SDS011;51144;53.002;6.506;2022-10-16T08:15:45;3.83;;;1.10;;
64714;SDS011;51144;53.002;6.506;2022-10-16T08:18:12;3.72;;;0.28;;
64714;SDS011;51144;53.002;6.506;2022-10-16T08:20:39;2.35;;;0.38;;
64714;SDS011;51144;53.002;6.506;2022-10-16T08:23:06;2.88;;;0.43;;
64714;SDS011;51144;53.002;6.506;2022-10-16T08:25:35;2.25;;;0.25;;
64714;SDS011;51144;53.002;6.506;2022-10-16T08:28:02;3.92;;;0.20;;
64714;SDS011;51144;53.002;6.506;2022-10-16T08:30:30;1.77;;;0.20;;
64714;SDS011;51144;53.002;6.506;2022-10-16T08:32:56;6.20;;;0.35;;
64714;SDS011;51144;53.002;6.506;2022-10-16T08:35:23;8.68;;;0.43;;
64714;SDS011;51144;53.002;6.506;2022-10-16T08:37:48;4.72;;;0.30;;
64714;SDS011;51144;53.002;6.506;2022-10-16T08:40:18;1.48;;;0.20;;
64714;SDS011;51144;53.002;6.506;2022-10-16T08:48:27;4.18;;;0.30;;
64714;SDS011;51144;53.002;6.506;2022-10-16T08:51:00;4.20;;;0.20;;
64714;SDS011;51144;53.002;6.506;2022-10-16T08:53:31;6.60;;;0.63;;
64714;SDS011;51144;53.002;6.506;2022-10-16T08:56:06;4.15;;;0.30;;
64714;SDS011;51144;53.002;6.506;2022-10-16T08:58:32;2.33;;;0.22;;
64714;SDS011;51144;53.002;6.506;2022-10-16T09:00:59;3.40;;;0.35;;
64714;SDS011;51144;53.002;6.506;2022-10-16T09:03:35;3.30;;;0.40;;
64714;SDS011;51144;53.002;6.506;2022-10-16T09:14:17;12.80;;;1.42;;
64714;SDS011;51144;53.002;6.506;2022-10-16T09:17:47;4.88;;;0.30;;
64714;SDS011;51144;53.002;6.506;2022-10-16T09:22:34;7.32;;;0.80;;
64714;SDS011;51144;53.002;6.506;2022-10-16T09:25:00;6.93;;;0.82;;
64714;SDS011;51144;53.002;6.506;2022-10-16T09:27:36;5.82;;;0.45;;
64714;SDS011;51144;53.002;6.506;2022-10-16T09:30:10;6.35;;;0.52;;
64714;SDS011;51144;53.002;6.506;2022-10-16T09:32:43;4.90;;;0.70;;
64714;SDS011;51144;53.002;6.506;2022-10-16T09:35:14;6.55;;;0.43;;
64714;SDS011;51144;53.002;6.506;2022-10-16T09:38:00;6.22;;;0.75;;
64714;SDS011;51144;53.002;6.506;2022-10-16T09:40:27;10.27;;;0.50;;
64714;SDS011;51144;53.002;6.506;2022-10-16T09:43:12;7.28;;;0.50;;
64714;SDS011;51144;53.002;6.506;2022-10-16T09:46:00;7.22;;;0.63;;
64714;SDS011;51144;53.002;6.506;2022-10-16T09:48:31;5.38;;;0.80;;
64714;SDS011;51144;53.002;6.506;2022-10-16T09:51:02;7.13;;;0.87;;
64714;SDS011;51144;53.002;6.506;2022-10-16T09:53:45;6.47;;;0.50;;
64714;SDS011;51144;53.002;6.506;2022-10-16T09:56:12;6.30;;;0.95;;
64714;SDS011;51144;53.002;6.506;2022-10-16T09:58:54;11.23;;;0.40;;
64714;SDS011;51144;53.002;6.506;2022-10-16T10:01:29;6.93;;;0.77;;
64714;SDS011;51144;53.002;6.506;2022-10-16T10:04:03;6.38;;;1.10;;
64714;SDS011;51144;53.002;6.506;2022-10-16T10:06:30;7.50;;;0.80;;
64714;SDS011;51144;53.002;6.506;2022-10-16T10:14:08;9.45;;;0.50;;
64714;SDS011;51144;53.002;6.506;2022-10-16T10:16:47;9.35;;;0.80;;
64714;SDS011;51144;53.002;6.506;2022-10-16T10:19:15;6.82;;;0.65;;
64714;SDS011;51144;53.002;6.506;2022-10-16T10:21:42;12.02;;;0.80;;
64714;SDS011;51144;53.002;6.506;2022-10-16T10:24:11;14.27;;;2.10;;
64714;SDS011;51144;53.002;6.506;2022-10-16T10:27:03;10.18;;;0.57;;
64714;SDS011;51144;53.002;6.506;2022-10-16T10:29:47;7.95;;;1.23;;
64714;SDS011;51144;53.002;6.506;2022-10-16T10:32:39;10.40;;;1.33;;
64714;SDS011;51144;53.002;6.506;2022-10-16T10:35:17;9.57;;;0.82;;
64714;SDS011;51144;53.002;6.506;2022-10-16T10:37:53;9.38;;;0.73;;
64714;SDS011;51144;53.002;6.506;2022-10-16T10:48:13;8.82;;;1.60;;
64714;SDS011;51144;53.002;6.506;2022-10-16T10:50:48;10.23;;;1.05;;
64714;SDS011;51144;53.002;6.506;2022-10-16T11:01:54;9.88;;;0.90;;
64714;SDS011;51144;53.002;6.506;2022-10-16T11:07:15;9.50;;;0.50;;
64714;SDS011;51144;53.002;6.506;2022-10-16T11:10:11;7.28;;;0.60;;
64714;SDS011;51144;53.002;6.506;2022-10-16T11:12:42;12.73;;;1.52;;
64714;SDS011;51144;53.002;6.506;2022-10-16T11:15:14;7.22;;;1.35;;
64714;SDS011;51144;53.002;6.506;2022-10-16T11:17:53;15.48;;;1.70;;
64714;SDS011;51144;53.002;6.506;2022-10-16T11:20:48;14.82;;;2.25;;
64714;SDS011;51144;53.002;6.506;2022-10-16T11:23:28;9.80;;;1.23;;
64714;SDS011;51144;53.002;6.506;2022-10-16T11:26:02;7.80;;;0.88;;
64714;SDS011;51144;53.002;6.506;2022-10-16T11:28:37;8.80;;;0.77;;
64714;SDS011;51144;53.002;6.506;2022-10-16T11:31:10;9.75;;;1.48;;
64714;SDS011;51144;53.002;6.506;2022-10-16T11:39:20;12.13;;;1.13;;
64714;SDS011;51144;53.002;6.506;2022-10-16T11:49:49;6.70;;;0.80;;
64714;SDS011;51144;53.002;6.506;2022-10-16T11:55:05;9.55;;;0.82;;
64714;SDS011;51144;53.002;6.506;2022-10-16T11:57:51;7.20;;;1.02;;
64714;SDS011;51144;53.002;6.506;2022-10-16T12:00:25;4.47;;;0.70;;
64714;SDS011;51144;53.002;6.506;2022-10-16T12:08:15;12.93;;;1.17;;
64714;SDS011;51144;53.002;6.506;2022-10-16T12:10:42;9.07;;;0.77;;
64714;SDS011;51144;53.002;6.506;2022-10-16T12:18:47;7.22;;;0.52;;
64714;SDS011;51144;53.002;6.506;2022-10-16T12:21:14;10.32;;;1.10;;
64714;SDS011;51144;53.002;6.506;2022-10-16T12:23:54;14.68;;;1.13;;
64714;SDS011;51144;53.002;6.506;2022-10-16T12:26:25;12.63;;;1.33;;
64714;SDS011;51144;53.002;6.506;2022-10-16T12:28:53;6.03;;;0.98;;
64714;SDS011;51144;53.002;6.506;2022-10-16T12:31:20;6.45;;;1.27;;
64714;SDS011;51144;53.002;6.506;2022-10-16T12:34:00;9.52;;;1.17;;
64714;SDS011;51144;53.002;6.506;2022-10-16T12:36:29;8.88;;;1.08;;
64714;SDS011;51144;53.002;6.506;2022-10-16T12:38:59;8.68;;;1.25;;
64714;SDS011;51144;53.002;6.506;2022-10-16T12:43:56;8.65;;;0.98;;
64714;SDS011;51144;53.002;6.506;2022-10-16T12:49:04;7.68;;;0.90;;
64714;SDS011;51144;53.002;6.506;2022-10-16T12:51:50;11.65;;;0.93;;
64714;SDS011;51144;53.002;6.506;2022-10-16T13:02:39;7.53;;;0.80;;
64714;SDS011;51144;53.002;6.506;2022-10-16T13:19:09;7.28;;;1.00;;
64714;SDS011;51144;53.002;6.506;2022-10-16T13:21:50;8.13;;;1.10;;
64714;SDS011;51144;53.002;6.506;2022-10-16T13:24:24;5.82;;;0.73;;
64714;SDS011;51144;53.002;6.506;2022-10-16T13:27:05;7.18;;;0.80;;
64714;SDS011;51144;53.002;6.506;2022-10-16T13:29:44;6.13;;;0.53;;
64714;SDS011;51144;53.002;6.506;2022-10-16T13:32:16;14.40;;;1.48;;
64714;SDS011;51144;53.002;6.506;2022-10-16T13:34:45;7.22;;;0.60;;
64714;SDS011;51144;53.002;6.506;2022-10-16T13:37:31;16.17;;;1.60;;
64714;SDS011;51144;53.002;6.506;2022-10-16T13:40:09;5.53;;;0.63;;
64714;SDS011;51144;53.002;6.506;2022-10-16T13:42:45;9.20;;;1.35;;
64714;SDS011;51144;53.002;6.506;2022-10-16T13:45:18;9.35;;;0.98;;
64714;SDS011;51144;53.002;6.506;2022-10-16T13:47:50;15.65;;;8.27;;
64714;SDS011;51144;53.002;6.506;2022-10-16T13:50:26;10.13;;;1.20;;
64714;SDS011;51144;53.002;6.506;2022-10-16T13:52:51;9.10;;;1.30;;
64714;SDS011;51144;53.002;6.506;2022-10-16T13:55:27;9.07;;;0.98;;
64714;SDS011;51144;53.002;6.506;2022-10-16T13:57:53;12.32;;;1.63;;
64714;SDS011;51144;53.002;6.506;2022-10-16T14:00:33;10.07;;;1.15;;
64714;SDS011;51144;53.002;6.506;2022-10-16T14:03:04;9.13;;;1.63;;
64714;SDS011;51144;53.002;6.506;2022-10-16T14:05:47;13.10;;;1.23;;
64714;SDS011;51144;53.002;6.506;2022-10-16T14:08:14;10.07;;;1.20;;
64714;SDS011;51144;53.002;6.506;2022-10-16T14:10:41;7.13;;;0.93;;
64714;SDS011;51144;53.002;6.506;2022-10-16T14:13:07;11.52;;;1.17;;
64714;SDS011;51144;53.002;6.506;2022-10-16T14:15:45;7.82;;;0.82;;
64714;SDS011;51144;53.002;6.506;2022-10-16T14:18:20;9.10;;;1.10;;
64714;SDS011;51144;53.002;6.506;2022-10-16T14:20:47;10.18;;;1.20;;
64714;SDS011;51144;53.002;6.506;2022-10-16T14:23:30;10.52;;;1.80;;
64714;SDS011;51144;53.002;6.506;2022-10-16T14:26:40;8.05;;;0.90;;
64714;SDS011;51144;53.002;6.506;2022-10-16T14:29:10;7.20;;;0.50;;
64714;SDS011;51144;53.002;6.506;2022-10-16T14:31:38;11.68;;;1.90;;
64714;SDS011;51144;53.002;6.506;2022-10-16T14:34:22;13.65;;;1.25;;
64714;SDS011;51144;53.002;6.506;2022-10-16T14:36:58;14.98;;;1.73;;
64714;SDS011;51144;53.002;6.506;2022-10-16T14:39:35;6.93;;;0.80;;
64714;SDS011;51144;53.002;6.506;2022-10-16T14:42:01;10.57;;;1.23;;
64714;SDS011;51144;53.002;6.506;2022-10-16T14:44:28;10.00;;;1.15;;
64714;SDS011;51144;53.002;6.506;2022-10-16T14:46:58;11.90;;;1.90;;
64714;SDS011;51144;53.002;6.506;2022-10-16T14:49:32;8.93;;;0.98;;
64714;SDS011;51144;53.002;6.506;2022-10-16T14:51:58;10.52;;;1.00;;
64714;SDS011;51144;53.002;6.506;2022-10-16T14:54:23;7.65;;;0.80;;
64714;SDS011;51144;53.002;6.506;2022-10-16T14:56:56;11.80;;;1.63;;
64714;SDS011;51144;53.002;6.506;2022-10-16T15:02:13;9.13;;;1.30;;
64714;SDS011;51144;53.002;6.506;2022-10-16T15:04:47;7.53;;;1.20;;
64714;SDS011;51144;53.002;6.506;2022-10-16T15:07:13;11.32;;;1.70;;
64714;SDS011;51144;53.002;6.506;2022-10-16T15:09:39;7.57;;;0.90;;
64714;SDS011;51144;53.002;6.506;2022-10-16T15:12:05;9.43;;;1.80;;
64714;SDS011;51144;53.002;6.506;2022-10-16T15:14:30;10.55;;;1.02;;
64714;SDS011;51144;53.002;6.506;2022-10-16T15:16:56;15.85;;;1.73;;
64714;SDS011;51144;53.002;6.506;2022-10-16T15:19:22;5.95;;;0.77;;
64714;SDS011;51144;53.002;6.506;2022-10-16T15:21:47;7.47;;;1.00;;
64714;SDS011;51144;53.002;6.506;2022-10-16T15:24:14;11.73;;;1.17;;
64714;SDS011;51144;53.002;6.506;2022-10-16T15:26:40;11.05;;;1.88;;
64714;SDS011;51144;53.002;6.506;2022-10-16T15:29:06;9.05;;;2.22;;
64714;SDS011;51144;53.002;6.506;2022-10-16T15:31:32;13.20;;;2.28;;
64714;SDS011;51144;53.002;6.506;2022-10-16T15:33:58;7.90;;;1.30;;
64714;SDS011;51144;53.002;6.506;2022-10-16T15:36:29;14.20;;;1.75;;
64714;SDS011;51144;53.002;6.506;2022-10-16T15:38:59;8.80;;;1.80;;
64714;SDS011;51144;53.002;6.506;2022-10-16T15:41:25;14.20;;;1.55;;
64714;SDS011;51144;53.002;6.506;2022-10-16T15:43:50;11.00;;;0.95;;
64714;SDS011;51144;53.002;6.506;2022-10-16T15:46:18;9.25;;;1.10;;
64714;SDS011;51144;53.002;6.506;2022-10-16T15:48:46;11.93;;;1.13;;
64714;SDS011;51144;53.002;6.506;2022-10-16T15:51:12;10.20;;;1.35;;
64714;SDS011;51144;53.002;6.506;2022-10-16T15:53:38;13.15;;;1.02;;
64714;SDS011;51144;53.002;6.506;2022-10-16T15:56:04;12.35;;;1.25;;
64714;SDS011;51144;53.002;6.506;2022-10-16T15:58:30;11.68;;;2.47;;
64714;SDS011;51144;53.002;6.506;2022-10-16T16:00:56;16.15;;;2.65;;
64714;SDS011;51144;53.002;6.506;2022-10-16T16:03:25;11.32;;;1.42;;
64714;SDS011;51144;53.002;6.506;2022-10-16T16:05:51;10.20;;;2.28;;
64714;SDS011;51144;53.002;6.506;2022-10-16T16:08:16;11.98;;;2.65;;
64714;SDS011;51144;53.002;6.506;2022-10-16T16:10:42;8.50;;;2.33;;
64714;SDS011;51144;53.002;6.506;2022-10-16T16:13:08;32.50;;;18.75;;
64714;SDS011;51144;53.002;6.506;2022-10-16T16:15:33;38.83;;;6.60;;
64714;SDS011;51144;53.002;6.506;2022-10-16T16:17:59;11.23;;;2.00;;
64714;SDS011;51144;53.002;6.506;2022-10-16T16:20:27;9.35;;;1.95;;
64714;SDS011;51144;53.002;6.506;2022-10-16T16:22:52;13.85;;;1.75;;
64714;SDS011;51144;53.002;6.506;2022-10-16T16:25:18;8.50;;;1.67;;
64714;SDS011;51144;53.002;6.506;2022-10-16T16:27:44;10.68;;;1.83;;
64714;SDS011;51144;53.002;6.506;2022-10-16T16:30:10;11.35;;;1.50;;
64714;SDS011;51144;53.002;6.506;2022-10-16T16:32:36;16.77;;;1.85;;
64714;SDS011;51144;53.002;6.506;2022-10-16T16:35:02;8.48;;;1.25;;
64714;SDS011;51144;53.002;6.506;2022-10-16T16:37:28;8.25;;;1.08;;
64714;SDS011;51144;53.002;6.506;2022-10-16T16:39:54;10.18;;;1.98;;
64714;SDS011;51144;53.002;6.506;2022-10-16T16:42:23;11.95;;;1.45;;
64714;SDS011;51144;53.002;6.506;2022-10-16T16:44:50;8.68;;;1.05;;
64714;SDS011;51144;53.002;6.506;2022-10-16T16:47:16;8.02;;;1.35;;
64714;SDS011;51144;53.002;6.506;2022-10-16T16:49:41;9.10;;;1.20;;
64714;SDS011;51144;53.002;6.506;2022-10-16T16:52:07;13.45;;;1.27;;
64714;SDS011;51144;53.002;6.506;2022-10-16T16:54:32;10.18;;;1.50;;